CDT,Max TemperatureF,Mean TemperatureF,Min TemperatureF,Max Dew PointF,MeanDew PointF,Min DewpointF,Max Humidity, Mean Humidity, Min Humidity, Max Sea Level PressureIn, Mean Sea Level PressureIn, Min Sea Level PressureIn, Max VisibilityMiles, Mean VisibilityMiles, Min VisibilityMiles, Max Wind SpeedMPH, Mean Wind SpeedMPH, Max Gust SpeedMPH,PrecipitationIn, CloudCover, Events, WindDirDegrees
2013-8-1,87,76,64,68,63,53,100,78,31,30.08,30.03,29.98,10,8,1,7,2,,0.00,0,,265
2013-8-2,82,74,66,73,69,64,100,87,65,29.97,29.94,29.91,10,6,0,12,3,,0.86,5,Fog-Rain,140
2013-8-3,84,76,69,72,69,62,100,85,56,30.11,30.00,29.93,10,5,0,12,2,,0.01,5,Fog,8
2013-8-4,80,72,64,65,61,57,87,71,48,30.17,30.12,30.07,10,10,10,7,2,,0.00,1,,108
2013-8-5,75,70,64,68,65,61,93,82,66,30.09,29.96,29.87,10,8,5,13,6,,0.00,7,,131
2013-8-6,87,78,69,73,70,68,100,85,53,29.92,29.87,29.82,10,6,1,8,3,,0.00,5,Rain,176
2013-8-7,87,79,71,74,71,68,100,80,55,29.93,29.86,29.81,10,9,2,12,6,18,0.19,3,Rain,233
2013-8-8,81,76,71,73,71,68,100,88,77,29.96,29.92,29.88,10,7,2,10,3,,0.37,4,Rain,360
2013-8-9,81,74,66,69,67,64,93,80,62,30.06,30.00,29.94,10,9,7,9,4,,0.01,1,,36
2013-8-10,84,75,66,68,64,60,93,69,44,30.14,30.10,30.06,10,10,10,9,4,,0.00,1,,3
2013-8-11,84,70,57,67,60,55,100,76,46,30.15,30.11,30.04,10,8,1,6,1,,0.00,0,,83
2013-8-12,77,73,69,72,69,64,100,87,74,30.06,29.98,29.91,10,7,1,9,2,,0.46,5,Rain,58
2013-8-13,79,71,64,66,62,52,90,73,62,30.13,30.03,29.95,10,10,9,14,7,,0.00,0,Rain,8
2013-8-14,75,64,54,58,53,50,93,69,46,30.21,30.17,30.13,10,10,9,10,6,,0.00,1,,66
2013-8-15,75,64,55,58,54,51,100,75,46,30.17,30.13,30.07,10,8,0,8,1,,0.00,0,Fog,60
2013-8-16,77,66,57,60,57,54,90,72,51,30.15,30.13,30.09,10,10,10,10,3,,0.00,1,,61
2013-8-17,81,70,60,62,59,55,86,70,50,30.19,30.14,30.10,10,10,8,15,4,29,0.00,0,,56
2013-8-18,105,80,61,68,62,57,87,63,30,30.17,30.12,30.06,10,9,6,8,3,,0.00,2,,34
2013-8-19,86,75,66,67,63,59,87,73,49,30.14,30.09,30.02,9,4,0,9,1,,0.00,2,,95
2013-8-20,87,74,62,69,65,61,94,81,51,30.11,30.06,30.02,10,6,2,7,2,,0.00,0,,106
2013-8-21,90,77,64,71,66,63,100,83,40,30.12,30.07,30.01,10,5,0,9,1,,0.00,1,Fog,193
2013-8-22,91,78,66,75,70,65,96,80,52,30.09,30.05,30.00,9,6,1,9,2,,0.00,0,,330
2013-8-23,89,80,70,72,70,67,91,75,52,30.10,30.07,30.03,10,9,6,9,4,,0.00,2,,76
2013-8-24,90,77,64,70,66,64,100,81,46,30.19,30.16,30.10,10,6,1,10,3,,0.00,0,,96
2013-8-25,91,77,64,68,65,62,100,74,39,30.27,30.20,30.14,10,8,2,8,2,,0.00,0,,85
2013-8-26,93,80,69,73,70,68,97,78,45,30.21,30.14,30.04,10,6,2,8,2,,0.00,1,,184
2013-8-27,95,81,69,73,69,65,93,70,38,30.07,30.02,29.96,10,9,4,9,3,,0.00,0,,242
2013-8-28,95,80,66,75,68,63,91,69,38,30.03,29.99,29.95,10,9,6,9,2,,0.00,0,,271
2013-8-29,96,82,70,77,70,66,93,70,40,30.03,29.98,29.93,10,10,8,7,2,,0.00,0,,300
2013-8-30,99,86,73,75,72,68,96,76,37,29.96,29.90,29.80,10,7,0,12,2,17,0.00,1,Fog,247
2013-8-31,100,86,73,75,72,68,91,67,35,29.83,29.77,29.69,10,10,8,13,3,,0.00,1,,248